sensor_id;sensor_type;location;lat;lon;timestamp;P1;durP1;ratioP1;P2;durP2;ratioP2
15573;SDS011;7888;46.748;8.102;2022-09-29T00:00:49;0.13;;;0.13;;
15573;SDS011;7888;46.748;8.102;2022-09-29T00:03:17;0.30;;;0.30;;
15573;SDS011;7888;46.748;8.102;2022-09-29T00:05:54;0.10;;;0.10;;
15573;SDS011;7888;46.748;8.102;2022-09-29T00:08:22;0.10;;;0.10;;
15573;SDS011;7888;46.748;8.102;2022-09-29T00:10:51;0.10;;;0.10;;
15573;SDS011;7888;46.748;8.102;2022-09-29T00:13:17;0.00;;;0.00;;
15573;SDS011;7888;46.748;8.102;2022-09-29T00:15:43;0.20;;;0.13;;
15573;SDS011;7888;46.748;8.102;2022-09-29T00:18:19;0.10;;;0.10;;
15573;SDS011;7888;46.748;8.102;2022-09-29T00:20:54;0.20;;;0.20;;
15573;SDS011;7888;46.748;8.102;2022-09-29T00:23:25;0.10;;;0.10;;
15573;SDS011;7888;46.748;8.102;2022-09-29T00:26:05;69.87;;;5.00;;
15573;SDS011;7888;46.748;8.102;2022-09-29T00:28:34;16.17;;;1.80;;
15573;SDS011;7888;46.748;8.102;2022-09-29T00:31:03;1.73;;;0.50;;
15573;SDS011;7888;46.748;8.102;2022-09-29T00:33:32;0.50;;;0.50;;
15573;SDS011;7888;46.748;8.102;2022-09-29T00:36:04;0.50;;;0.43;;
15573;SDS011;7888;46.748;8.102;2022-09-29T00:38:34;0.50;;;0.50;;
15573;SDS011;7888;46.748;8.102;2022-09-29T00:41:00;0.60;;;0.60;;
15573;SDS011;7888;46.748;8.102;2022-09-29T00:46:52;0.37;;;0.33;;
15573;SDS011;7888;46.748;8.102;2022-09-29T00:52:10;0.20;;;0.20;;
15573;SDS011;7888;46.748;8.102;2022-09-29T00:54:48;0.30;;;0.30;;
15573;SDS011;7888;46.748;8.102;2022-09-29T00:57:21;0.73;;;0.20;;
15573;SDS011;7888;46.748;8.102;2022-09-29T01:00:03;0.10;;;0.10;;
15573;SDS011;7888;46.748;8.102;2022-09-29T01:02:39;0.20;;;0.20;;
15573;SDS011;7888;46.748;8.102;2022-09-29T01:05:15;0.20;;;0.20;;
15573;SDS011;7888;46.748;8.102;2022-09-29T01:07:49;0.20;;;0.10;;
15573;SDS011;7888;46.748;8.102;2022-09-29T01:10:16;0.20;;;0.20;;
15573;SDS011;7888;46.748;8.102;2022-09-29T01:12:44;0.10;;;0.10;;
15573;SDS011;7888;46.748;8.102;2022-09-29T01:15:12;0.53;;;0.20;;
15573;SDS011;7888;46.748;8.102;2022-09-29T01:17:41;0.20;;;0.20;;
15573;SDS011;7888;46.748;8.102;2022-09-29T01:20:17;8.00;;;0.80;;
15573;SDS011;7888;46.748;8.102;2022-09-29T01:28:38;0.33;;;0.30;;
15573;SDS011;7888;46.748;8.102;2022-09-29T01:31:37;0.30;;;0.23;;
15573;SDS011;7888;46.748;8.102;2022-09-29T01:34:42;0.30;;;0.30;;
15573;SDS011;7888;46.748;8.102;2022-09-29T01:46:23;0.10;;;0.10;;
15573;SDS011;7888;46.748;8.102;2022-09-29T01:49:23;0.20;;;0.20;;
15573;SDS011;7888;46.748;8.102;2022-09-29T01:54:40;0.10;;;0.10;;
15573;SDS011;7888;46.748;8.102;2022-09-29T01:57:28;3.20;;;0.43;;
15573;SDS011;7888;46.748;8.102;2022-09-29T02:02:36;3.77;;;0.60;;
15573;SDS011;7888;46.748;8.102;2022-09-29T02:05:32;0.30;;;0.20;;
15573;SDS011;7888;46.748;8.102;2022-09-29T02:08:16;49.43;;;3.63;;
15573;SDS011;7888;46.748;8.102;2022-09-29T02:11:09;1.20;;;0.30;;
15573;SDS011;7888;46.748;8.102;2022-09-29T02:16:36;0.67;;;0.23;;
15573;SDS011;7888;46.748;8.102;2022-09-29T02:21:46;0.17;;;0.10;;
15573;SDS011;7888;46.748;8.102;2022-09-29T02:24:13;0.20;;;0.20;;
15573;SDS011;7888;46.748;8.102;2022-09-29T02:26:39;0.40;;;0.13;;
15573;SDS011;7888;46.748;8.102;2022-09-29T02:29:09;0.20;;;0.10;;
15573;SDS011;7888;46.748;8.102;2022-09-29T02:31:35;0.10;;;0.10;;
15573;SDS011;7888;46.748;8.102;2022-09-29T02:34:02;0.20;;;0.20;;
15573;SDS011;7888;46.748;8.102;2022-09-29T02:36:38;0.33;;;0.30;;
15573;SDS011;7888;46.748;8.102;2022-09-29T02:41:54;0.10;;;0.10;;
15573;SDS011;7888;46.748;8.102;2022-09-29T02:44:45;0.10;;;0.10;;
15573;SDS011;7888;46.748;8.102;2022-09-29T02:50:05;0.53;;;0.20;;
15573;SDS011;7888;46.748;8.102;2022-09-29T02:55:56;0.10;;;0.10;;
15573;SDS011;7888;46.748;8.102;2022-09-29T02:58:41;0.17;;;0.10;;
15573;SDS011;7888;46.748;8.102;2022-09-29T03:01:25;0.10;;;0.10;;
15573;SDS011;7888;46.748;8.102;2022-09-29T03:03:56;1.17;;;0.20;;
15573;SDS011;7888;46.748;8.102;2022-09-29T03:06:23;1.13;;;0.10;;
15573;SDS011;7888;46.748;8.102;2022-09-29T03:08:49;0.83;;;0.20;;
15573;SDS011;7888;46.748;8.102;2022-09-29T03:11:14;0.20;;;0.10;;
15573;SDS011;7888;46.748;8.102;2022-09-29T03:13:40;0.07;;;0.00;;
15573;SDS011;7888;46.748;8.102;2022-09-29T03:16:06;0.20;;;0.20;;
15573;SDS011;7888;46.748;8.102;2022-09-29T03:18:32;0.53;;;0.20;;
15573;SDS011;7888;46.748;8.102;2022-09-29T03:20:58;12.03;;;1.13;;
15573;SDS011;7888;46.748;8.102;2022-09-29T03:23:24;7.07;;;0.80;;
15573;SDS011;7888;46.748;8.102;2022-09-29T03:25:50;13.77;;;1.40;;
15573;SDS011;7888;46.748;8.102;2022-09-29T03:28:16;0.20;;;0.20;;
15573;SDS011;7888;46.748;8.102;2022-09-29T03:30:42;0.10;;;0.10;;
15573;SDS011;7888;46.748;8.102;2022-09-29T03:33:09;0.20;;;0.20;;
15573;SDS011;7888;46.748;8.102;2022-09-29T03:35:36;0.10;;;0.10;;
15573;SDS011;7888;46.748;8.102;2022-09-29T03:38:02;0.20;;;0.20;;
15573;SDS011;7888;46.748;8.102;2022-09-29T03:40:28;0.20;;;0.20;;
15573;SDS011;7888;46.748;8.102;2022-09-29T03:42:53;0.30;;;0.30;;
15573;SDS011;7888;46.748;8.102;2022-09-29T03:45:19;0.20;;;0.20;;
15573;SDS011;7888;46.748;8.102;2022-09-29T03:47:45;0.30;;;0.30;;
15573;SDS011;7888;46.748;8.102;2022-09-29T03:50:11;0.30;;;0.13;;
15573;SDS011;7888;46.748;8.102;2022-09-29T03:52:37;0.83;;;0.30;;
15573;SDS011;7888;46.748;8.102;2022-09-29T03:55:03;0.33;;;0.20;;
15573;SDS011;7888;46.748;8.102;2022-09-29T03:57:29;0.30;;;0.30;;
15573;SDS011;7888;46.748;8.102;2022-09-29T03:59:55;0.40;;;0.30;;
15573;SDS011;7888;46.748;8.102;2022-09-29T04:02:21;0.10;;;0.10;;
15573;SDS011;7888;46.748;8.102;2022-09-29T04:04:47;0.20;;;0.20;;
15573;SDS011;7888;46.748;8.102;2022-09-29T04:07:13;0.77;;;0.13;;
15573;SDS011;7888;46.748;8.102;2022-09-29T04:09:39;0.17;;;0.10;;
15573;SDS011;7888;46.748;8.102;2022-09-29T04:12:05;0.10;;;0.10;;
15573;SDS011;7888;46.748;8.102;2022-09-29T04:14:31;0.20;;;0.10;;
15573;SDS011;7888;46.748;8.102;2022-09-29T04:16:57;0.33;;;0.30;;
15573;SDS011;7888;46.748;8.102;2022-09-29T04:19:22;0.17;;;0.17;;
15573;SDS011;7888;46.748;8.102;2022-09-29T04:21:48;0.10;;;0.10;;
15573;SDS011;7888;46.748;8.102;2022-09-29T04:24:14;0.27;;;0.27;;
15573;SDS011;7888;46.748;8.102;2022-09-29T04:26:40;1.07;;;0.40;;
15573;SDS011;7888;46.748;8.102;2022-09-29T04:29:06;0.20;;;0.20;;
15573;SDS011;7888;46.748;8.102;2022-09-29T04:31:32;0.40;;;0.20;;
15573;SDS011;7888;46.748;8.102;2022-09-29T04:33:57;1.07;;;0.50;;
15573;SDS011;7888;46.748;8.102;2022-09-29T04:36:23;0.20;;;0.20;;
15573;SDS011;7888;46.748;8.102;2022-09-29T04:38:49;0.30;;;0.30;;
15573;SDS011;7888;46.748;8.102;2022-09-29T04:41:16;0.20;;;0.20;;
15573;SDS011;7888;46.748;8.102;2022-09-29T04:43:42;0.20;;;0.20;;
15573;SDS011;7888;46.748;8.102;2022-09-29T04:46:08;0.67;;;0.30;;
15573;SDS011;7888;46.748;8.102;2022-09-29T04:48:35;0.70;;;0.27;;
15573;SDS011;7888;46.748;8.102;2022-09-29T04:51:02;0.20;;;0.20;;
15573;SDS011;7888;46.748;8.102;2022-09-29T04:53:29;0.97;;;0.40;;
15573;SDS011;7888;46.748;8.102;2022-09-29T04:55:55;13.73;;;1.57;;
15573;SDS011;7888;46.748;8.102;2022-09-29T04:58:21;22.90;;;1.80;;
15573;SDS011;7888;46.748;8.102;2022-09-29T05:00:47;2.17;;;0.30;;
15573;SDS011;7888;46.748;8.102;2022-09-29T05:03:12;0.50;;;0.30;;
15573;SDS011;7888;46.748;8.102;2022-09-29T05:05:38;0.30;;;0.30;;
15573;SDS011;7888;46.748;8.102;2022-09-29T05:08:04;0.93;;;0.20;;
15573;SDS011;7888;46.748;8.102;2022-09-29T05:10:31;0.30;;;0.30;;
15573;SDS011;7888;46.748;8.102;2022-09-29T05:12:57;0.20;;;0.20;;
15573;SDS011;7888;46.748;8.102;2022-09-29T05:15:23;48.07;;;3.60;;
15573;SDS011;7888;46.748;8.102;2022-09-29T05:17:48;26.57;;;2.63;;
15573;SDS011;7888;46.748;8.102;2022-09-29T05:20:14;2.30;;;0.40;;
15573;SDS011;7888;46.748;8.102;2022-09-29T05:22:41;1.00;;;0.33;;
15573;SDS011;7888;46.748;8.102;2022-09-29T05:25:07;18.40;;;1.50;;
15573;SDS011;7888;46.748;8.102;2022-09-29T05:27:37;17.27;;;1.67;;
15573;SDS011;7888;46.748;8.102;2022-09-29T05:30:03;9.37;;;0.93;;
15573;SDS011;7888;46.748;8.102;2022-09-29T05:32:30;4.57;;;0.80;;
15573;SDS011;7888;46.748;8.102;2022-09-29T05:34:56;8.93;;;1.00;;
15573;SDS011;7888;46.748;8.102;2022-09-29T05:37:22;0.93;;;0.30;;
15573;SDS011;7888;46.748;8.102;2022-09-29T05:39:48;1.07;;;0.33;;
15573;SDS011;7888;46.748;8.102;2022-09-29T05:42:13;47.83;;;4.47;;
15573;SDS011;7888;46.748;8.102;2022-09-29T05:44:39;46.90;;;4.07;;
15573;SDS011;7888;46.748;8.102;2022-09-29T05:47:05;86.20;;;7.33;;
15573;SDS011;7888;46.748;8.102;2022-09-29T05:49:31;9.67;;;1.13;;
15573;SDS011;7888;46.748;8.102;2022-09-29T05:51:57;4.30;;;0.60;;
15573;SDS011;7888;46.748;8.102;2022-09-29T05:54:24;7.50;;;0.97;;
15573;SDS011;7888;46.748;8.102;2022-09-29T05:56:51;1.17;;;0.40;;
15573;SDS011;7888;46.748;8.102;2022-09-29T05:59:17;0.30;;;0.30;;
15573;SDS011;7888;46.748;8.102;2022-09-29T06:01:43;0.30;;;0.30;;
15573;SDS011;7888;46.748;8.102;2022-09-29T06:04:09;0.60;;;0.30;;
15573;SDS011;7888;46.748;8.102;2022-09-29T06:06:35;0.83;;;0.70;;
15573;SDS011;7888;46.748;8.102;2022-09-29T06:09:04;1.40;;;0.67;;
15573;SDS011;7888;46.748;8.102;2022-09-29T06:11:30;0.83;;;0.60;;
15573;SDS011;7888;46.748;8.102;2022-09-29T06:13:56;1.07;;;1.03;;
15573;SDS011;7888;46.748;8.102;2022-09-29T06:16:24;1.40;;;1.20;;
15573;SDS011;7888;46.748;8.102;2022-09-29T06:18:52;1.30;;;1.20;;
15573;SDS011;7888;46.748;8.102;2022-09-29T06:21:20;1.40;;;1.30;;
15573;SDS011;7888;46.748;8.102;2022-09-29T06:23:50;1.30;;;1.20;;
15573;SDS011;7888;46.748;8.102;2022-09-29T06:26:19;1.00;;;0.90;;
15573;SDS011;7888;46.748;8.102;2022-09-29T06:28:46;0.80;;;0.80;;
15573;SDS011;7888;46.748;8.102;2022-09-29T06:31:13;0.53;;;0.50;;
15573;SDS011;7888;46.748;8.102;2022-09-29T06:33:45;1.00;;;0.90;;
15573;SDS011;7888;46.748;8.102;2022-09-29T06:36:18;2.13;;;2.03;;
15573;SDS011;7888;46.748;8.102;2022-09-29T06:39:16;4.13;;;3.83;;
15573;SDS011;7888;46.748;8.102;2022-09-29T06:41:42;2.50;;;2.30;;
15573;SDS011;7888;46.748;8.102;2022-09-29T06:44:15;1.87;;;1.73;;
15573;SDS011;7888;46.748;8.102;2022-09-29T06:46:42;1.10;;;1.00;;
15573;SDS011;7888;46.748;8.102;2022-09-29T06:49:10;0.80;;;0.80;;
15573;SDS011;7888;46.748;8.102;2022-09-29T06:51:39;0.80;;;0.60;;
15573;SDS011;7888;46.748;8.102;2022-09-29T06:54:06;0.47;;;0.47;;
15573;SDS011;7888;46.748;8.102;2022-09-29T06:56:32;0.50;;;0.50;;
15573;SDS011;7888;46.748;8.102;2022-09-29T06:58:58;0.50;;;0.50;;
15573;SDS011;7888;46.748;8.102;2022-09-29T07:01:24;0.50;;;0.50;;
15573;SDS011;7888;46.748;8.102;2022-09-29T07:03:50;1.30;;;0.40;;
15573;SDS011;7888;46.748;8.102;2022-09-29T07:06:16;0.40;;;0.30;;
15573;SDS011;7888;46.748;8.102;2022-09-29T07:08:42;1.53;;;0.50;;
15573;SDS011;7888;46.748;8.102;2022-09-29T07:11:08;1.40;;;0.50;;
15573;SDS011;7888;46.748;8.102;2022-09-29T07:13:35;0.80;;;0.67;;
15573;SDS011;7888;46.748;8.102;2022-09-29T07:16:05;0.90;;;0.80;;
15573;SDS011;7888;46.748;8.102;2022-09-29T07:18:38;0.90;;;0.83;;
15573;SDS011;7888;46.748;8.102;2022-09-29T07:21:09;0.60;;;0.60;;
15573;SDS011;7888;46.748;8.102;2022-09-29T07:23:42;1.03;;;0.87;;
15573;SDS011;7888;46.748;8.102;2022-09-29T07:26:09;0.70;;;0.70;;
15573;SDS011;7888;46.748;8.102;2022-09-29T07:28:35;1.00;;;0.90;;
15573;SDS011;7888;46.748;8.102;2022-09-29T07:33:37;1.43;;;0.70;;
15573;SDS011;7888;46.748;8.102;2022-09-29T07:36:02;0.50;;;0.50;;
15573;SDS011;7888;46.748;8.102;2022-09-29T07:38:29;0.60;;;0.50;;
15573;SDS011;7888;46.748;8.102;2022-09-29T07:41:00;1.30;;;0.80;;
15573;SDS011;7888;46.748;8.102;2022-09-29T07:43:29;1.10;;;0.60;;
15573;SDS011;7888;46.748;8.102;2022-09-29T07:45:55;0.70;;;0.60;;
15573;SDS011;7888;46.748;8.102;2022-09-29T07:48:21;1.33;;;1.00;;
15573;SDS011;7888;46.748;8.102;2022-09-29T07:50:47;0.80;;;0.70;;
15573;SDS011;7888;46.748;8.102;2022-09-29T07:53:13;0.80;;;0.77;;
15573;SDS011;7888;46.748;8.102;2022-09-29T07:55:39;0.90;;;0.80;;
15573;SDS011;7888;46.748;8.102;2022-09-29T07:58:05;0.70;;;0.60;;
15573;SDS011;7888;46.748;8.102;2022-09-29T08:00:31;0.87;;;0.60;;
15573;SDS011;7888;46.748;8.102;2022-09-29T08:03:00;0.50;;;0.50;;
15573;SDS011;7888;46.748;8.102;2022-09-29T08:05:29;0.70;;;0.50;;
15573;SDS011;7888;46.748;8.102;2022-09-29T08:07:59;0.50;;;0.50;;
15573;SDS011;7888;46.748;8.102;2022-09-29T08:10:29;0.50;;;0.50;;
15573;SDS011;7888;46.748;8.102;2022-09-29T08:12:57;1.93;;;0.50;;
15573;SDS011;7888;46.748;8.102;2022-09-29T08:15:23;0.40;;;0.40;;
15573;SDS011;7888;46.748;8.102;2022-09-29T08:17:51;0.93;;;0.50;;
15573;SDS011;7888;46.748;8.102;2022-09-29T08:20:19;0.50;;;0.30;;
15573;SDS011;7888;46.748;8.102;2022-09-29T08:22:48;0.50;;;0.50;;
15573;SDS011;7888;46.748;8.102;2022-09-29T08:25:15;1.70;;;0.50;;
15573;SDS011;7888;46.748;8.102;2022-09-29T08:27:42;1.37;;;0.50;;
15573;SDS011;7888;46.748;8.102;2022-09-29T08:30:09;0.50;;;0.50;;
15573;SDS011;7888;46.748;8.102;2022-09-29T08:32:36;0.47;;;0.47;;
15573;SDS011;7888;46.748;8.102;2022-09-29T08:35:03;0.43;;;0.43;;
15573;SDS011;7888;46.748;8.102;2022-09-29T08:37:30;3.00;;;0.70;;
15573;SDS011;7888;46.748;8.102;2022-09-29T08:39:56;0.90;;;0.83;;
15573;SDS011;7888;46.748;8.102;2022-09-29T08:42:24;1.47;;;0.70;;
15573;SDS011;7888;46.748;8.102;2022-09-29T08:44:58;1.47;;;0.70;;
15573;SDS011;7888;46.748;8.102;2022-09-29T08:47:35;0.70;;;0.70;;
15573;SDS011;7888;46.748;8.102;2022-09-29T08:50:18;0.60;;;0.57;;
15573;SDS011;7888;46.748;8.102;2022-09-29T08:52:53;0.50;;;0.37;;
15573;SDS011;7888;46.748;8.102;2022-09-29T08:55:33;0.50;;;0.50;;
15573;SDS011;7888;46.748;8.102;2022-09-29T08:58:17;0.80;;;0.80;;
15573;SDS011;7888;46.748;8.102;2022-09-29T09:00:59;0.60;;;0.60;;
15573;SDS011;7888;46.748;8.102;2022-09-29T09:06:31;0.53;;;0.53;;
15573;SDS011;7888;46.748;8.102;2022-09-29T09:12:19;1.47;;;0.53;;
15573;SDS011;7888;46.748;8.102;2022-09-29T09:18:21;0.80;;;0.60;;
15573;SDS011;7888;46.748;8.102;2022-09-29T09:21:08;0.60;;;0.60;;
15573;SDS011;7888;46.748;8.102;2022-09-29T09:23:54;0.67;;;0.67;;
15573;SDS011;7888;46.748;8.102;2022-09-29T09:32:04;0.63;;;0.63;;
15573;SDS011;7888;46.748;8.102;2022-09-29T09:34:39;0.57;;;0.57;;
15573;SDS011;7888;46.748;8.102;2022-09-29T09:37:18;0.60;;;0.53;;
15573;SDS011;7888;46.748;8.102;2022-09-29T09:39:54;0.67;;;0.50;;
15573;SDS011;7888;46.748;8.102;2022-09-29T09:42:41;2.20;;;1.00;;
15573;SDS011;7888;46.748;8.102;2022-09-29T09:45:16;1.47;;;0.70;;
15573;SDS011;7888;46.748;8.102;2022-09-29T09:47:53;1.10;;;0.70;;
15573;SDS011;7888;46.748;8.102;2022-09-29T09:50:41;0.40;;;0.40;;
15573;SDS011;7888;46.748;8.102;2022-09-29T09:53:40;0.40;;;0.40;;
15573;SDS011;7888;46.748;8.102;2022-09-29T10:01:49;0.20;;;0.20;;
15573;SDS011;7888;46.748;8.102;2022-09-29T10:04:15;1.23;;;0.20;;
15573;SDS011;7888;46.748;8.102;2022-09-29T10:06:41;0.47;;;0.20;;
15573;SDS011;7888;46.748;8.102;2022-09-29T10:09:13;0.30;;;0.27;;
15573;SDS011;7888;46.748;8.102;2022-09-29T10:11:40;0.30;;;0.30;;
15573;SDS011;7888;46.748;8.102;2022-09-29T10:14:15;0.80;;;0.50;;
15573;SDS011;7888;46.748;8.102;2022-09-29T10:22:25;0.43;;;0.43;;
15573;SDS011;7888;46.748;8.102;2022-09-29T10:25:15;0.70;;;0.70;;
15573;SDS011;7888;46.748;8.102;2022-09-29T10:27:44;0.50;;;0.50;;
15573;SDS011;7888;46.748;8.102;2022-09-29T10:30:21;0.57;;;0.40;;
15573;SDS011;7888;46.748;8.102;2022-09-29T10:33:10;0.30;;;0.30;;
15573;SDS011;7888;46.748;8.102;2022-09-29T10:35:42;0.40;;;0.30;;
15573;SDS011;7888;46.748;8.102;2022-09-29T10:38:24;0.30;;;0.30;;
15573;SDS011;7888;46.748;8.102;2022-09-29T10:40:55;0.30;;;0.30;;
15573;SDS011;7888;46.748;8.102;2022-09-29T10:43:26;1.37;;;0.40;;
15573;SDS011;7888;46.748;8.102;2022-09-29T10:46:01;0.20;;;0.20;;
15573;SDS011;7888;46.748;8.102;2022-09-29T10:48:27;0.20;;;0.20;;
15573;SDS011;7888;46.748;8.102;2022-09-29T10:50:54;0.47;;;0.20;;
15573;SDS011;7888;46.748;8.102;2022-09-29T10:56:08;0.50;;;0.30;;
15573;SDS011;7888;46.748;8.102;2022-09-29T10:58:55;0.27;;;0.20;;
15573;SDS011;7888;46.748;8.102;2022-09-29T11:01:26;0.10;;;0.10;;
15573;SDS011;7888;46.748;8.102;2022-09-29T11:04:06;0.20;;;0.20;;
15573;SDS011;7888;46.748;8.102;2022-09-29T11:06:46;0.27;;;0.27;;
15573;SDS011;7888;46.748;8.102;2022-09-29T11:14:54;0.80;;;0.80;;
15573;SDS011;7888;46.748;8.102;2022-09-29T11:17:00;1.00;;;0.67;;
15573;SDS011;7888;46.748;8.102;2022-09-29T11:19:45;1.40;;;1.30;;
15573;SDS011;7888;46.748;8.102;2022-09-29T11:25:36;0.40;;;0.40;;
15573;SDS011;7888;46.748;8.102;2022-09-29T11:39:51;0.47;;;0.30;;
15573;SDS011;7888;46.748;8.102;2022-09-29T11:48:26;0.27;;;0.27;;
15573;SDS011;7888;46.748;8.102;2022-09-29T11:51:17;0.20;;;0.20;;
15573;SDS011;7888;46.748;8.102;2022-09-29T11:56:36;0.67;;;0.30;;
15573;SDS011;7888;46.748;8.102;2022-09-29T11:59:17;0.37;;;0.30;;
15573;SDS011;7888;46.748;8.102;2022-09-29T12:11:33;0.33;;;0.20;;
15573;SDS011;7888;46.748;8.102;2022-09-29T12:14:30;0.23;;;0.23;;
15573;SDS011;7888;46.748;8.102;2022-09-29T12:17:27;0.30;;;0.30;;
15573;SDS011;7888;46.748;8.102;2022-09-29T12:20:03;0.40;;;0.30;;
15573;SDS011;7888;46.748;8.102;2022-09-29T12:22:49;0.10;;;0.10;;
15573;SDS011;7888;46.748;8.102;2022-09-29T12:25:19;0.40;;;0.30;;
15573;SDS011;7888;46.748;8.102;2022-09-29T12:27:51;0.30;;;0.30;;
15573;SDS011;7888;46.748;8.102;2022-09-29T12:30:27;0.10;;;0.10;;
15573;SDS011;7888;46.748;8.102;2022-09-29T12:33:32;0.20;;;0.20;;
15573;SDS011;7888;46.748;8.102;2022-09-29T12:41:51;0.20;;;0.20;;
15573;SDS011;7888;46.748;8.102;2022-09-29T12:44:45;0.30;;;0.30;;
15573;SDS011;7888;46.748;8.102;2022-09-29T12:50:56;0.30;;;0.30;;
15573;SDS011;7888;46.748;8.102;2022-09-29T12:56:23;0.30;;;0.30;;
15573;SDS011;7888;46.748;8.102;2022-09-29T13:01:33;0.30;;;0.30;;
15573;SDS011;7888;46.748;8.102;2022-09-29T13:06:51;0.50;;;0.30;;
15573;SDS011;7888;46.748;8.102;2022-09-29T13:13:37;0.50;;;0.30;;
15573;SDS011;7888;46.748;8.102;2022-09-29T13:19:08;0.50;;;0.50;;
15573;SDS011;7888;46.748;8.102;2022-09-29T13:28:03;0.43;;;0.20;;
15573;SDS011;7888;46.748;8.102;2022-09-29T13:30:45;0.20;;;0.20;;
15573;SDS011;7888;46.748;8.102;2022-09-29T13:33:17;0.20;;;0.20;;
15573;SDS011;7888;46.748;8.102;2022-09-29T13:35:48;0.60;;;0.10;;
15573;SDS011;7888;46.748;8.102;2022-09-29T13:38:16;0.20;;;0.10;;
15573;SDS011;7888;46.748;8.102;2022-09-29T13:51:50;0.23;;;0.23;;
15573;SDS011;7888;46.748;8.102;2022-09-29T13:54:36;0.20;;;0.20;;
15573;SDS011;7888;46.748;8.102;2022-09-29T13:59:46;0.30;;;0.30;;
15573;SDS011;7888;46.748;8.102;2022-09-29T14:04:57;0.30;;;0.30;;
15573;SDS011;7888;46.748;8.102;2022-09-29T14:13:04;0.50;;;0.50;;
15573;SDS011;7888;46.748;8.102;2022-09-29T14:15:50;0.40;;;0.40;;
15573;SDS011;7888;46.748;8.102;2022-09-29T14:18:42;0.50;;;0.30;;
15573;SDS011;7888;46.748;8.102;2022-09-29T14:29:55;0.13;;;0.13;;
15573;SDS011;7888;46.748;8.102;2022-09-29T14:32:53;1.17;;;0.30;;
15573;SDS011;7888;46.748;8.102;2022-09-29T14:46:19;0.50;;;0.20;;
15573;SDS011;7888;46.748;8.102;2022-09-29T14:49:36;0.70;;;0.40;;
15573;SDS011;7888;46.748;8.102;2022-09-29T14:52:51;0.20;;;0.20;;
15573;SDS011;7888;46.748;8.102;2022-09-29T15:04:54;1.80;;;0.30;;
15573;SDS011;7888;46.748;8.102;2022-09-29T15:07:22;0.40;;;0.40;;
15573;SDS011;7888;46.748;8.102;2022-09-29T15:09:56;0.40;;;0.30;;
15573;SDS011;7888;46.748;8.102;2022-09-29T15:14:55;0.53;;;0.43;;
15573;SDS011;7888;46.748;8.102;2022-09-29T15:20:32;0.40;;;0.40;;
15573;SDS011;7888;46.748;8.102;2022-09-29T15:26:29;1.23;;;0.40;;
15573;SDS011;7888;46.748;8.102;2022-09-29T15:28:58;0.50;;;0.40;;
15573;SDS011;7888;46.748;8.102;2022-09-29T15:31:26;0.87;;;0.60;;
15573;SDS011;7888;46.748;8.102;2022-09-29T15:33:58;0.30;;;0.30;;
15573;SDS011;7888;46.748;8.102;2022-09-29T15:36:28;0.50;;;0.50;;
15573;SDS011;7888;46.748;8.102;2022-09-29T15:39:05;0.57;;;0.50;;
15573;SDS011;7888;46.748;8.102;2022-09-29T15:41:46;0.50;;;0.50;;
15573;SDS011;7888;46.748;8.102;2022-09-29T15:44:26;0.53;;;0.47;;
15573;SDS011;7888;46.748;8.102;2022-09-29T15:46:56;0.40;;;0.40;;
15573;SDS011;7888;46.748;8.102;2022-09-29T15:49:24;0.60;;;0.50;;
15573;SDS011;7888;46.748;8.102;2022-09-29T15:51:59;0.50;;;0.50;;
15573;SDS011;7888;46.748;8.102;2022-09-29T15:54:29;0.50;;;0.50;;
15573;SDS011;7888;46.748;8.102;2022-09-29T15:56:58;0.43;;;0.43;;
15573;SDS011;7888;46.748;8.102;2022-09-29T15:59:55;0.40;;;0.30;;
15573;SDS011;7888;46.748;8.102;2022-09-29T16:05:01;0.40;;;0.40;;
15573;SDS011;7888;46.748;8.102;2022-09-29T16:07:37;0.20;;;0.20;;
15573;SDS011;7888;46.748;8.102;2022-09-29T16:10:15;0.50;;;0.40;;
15573;SDS011;7888;46.748;8.102;2022-09-29T16:12:48;0.30;;;0.30;;
15573;SDS011;7888;46.748;8.102;2022-09-29T16:15:47;0.40;;;0.37;;
15573;SDS011;7888;46.748;8.102;2022-09-29T16:18:22;1.03;;;0.30;;
15573;SDS011;7888;46.748;8.102;2022-09-29T16:20:53;0.60;;;0.30;;
15573;SDS011;7888;46.748;8.102;2022-09-29T16:26:19;0.40;;;0.40;;
15573;SDS011;7888;46.748;8.102;2022-09-29T16:31:37;0.90;;;0.30;;
15573;SDS011;7888;46.748;8.102;2022-09-29T16:34:22;0.40;;;0.40;;
15573;SDS011;7888;46.748;8.102;2022-09-29T16:39:31;1.13;;;0.80;;
15573;SDS011;7888;46.748;8.102;2022-09-29T16:44:46;0.50;;;0.40;;
15573;SDS011;7888;46.748;8.102;2022-09-29T16:50:00;0.40;;;0.40;;
15573;SDS011;7888;46.748;8.102;2022-09-29T16:52:42;0.67;;;0.50;;
15573;SDS011;7888;46.748;8.102;2022-09-29T16:55:18;0.80;;;0.50;;
15573;SDS011;7888;46.748;8.102;2022-09-29T16:57:59;0.60;;;0.60;;
15573;SDS011;7888;46.748;8.102;2022-09-29T17:00:37;0.47;;;0.40;;
15573;SDS011;7888;46.748;8.102;2022-09-29T17:03:03;0.70;;;0.40;;
15573;SDS011;7888;46.748;8.102;2022-09-29T17:05:30;0.30;;;0.30;;
15573;SDS011;7888;46.748;8.102;2022-09-29T17:08:03;0.93;;;0.40;;
15573;SDS011;7888;46.748;8.102;2022-09-29T17:10:31;0.47;;;0.43;;
15573;SDS011;7888;46.748;8.102;2022-09-29T17:12:57;1.07;;;1.07;;
15573;SDS011;7888;46.748;8.102;2022-09-29T17:15:23;0.90;;;0.90;;
15573;SDS011;7888;46.748;8.102;2022-09-29T17:17:50;0.50;;;0.50;;
15573;SDS011;7888;46.748;8.102;2022-09-29T17:20:18;0.77;;;0.70;;
15573;SDS011;7888;46.748;8.102;2022-09-29T17:22:53;0.60;;;0.40;;
15573;SDS011;7888;46.748;8.102;2022-09-29T17:25:20;0.50;;;0.50;;
15573;SDS011;7888;46.748;8.102;2022-09-29T17:27:47;0.50;;;0.50;;
15573;SDS011;7888;46.748;8.102;2022-09-29T17:30:31;0.53;;;0.53;;
15573;SDS011;7888;46.748;8.102;2022-09-29T17:32:57;0.47;;;0.47;;
15573;SDS011;7888;46.748;8.102;2022-09-29T17:35:27;0.67;;;0.60;;
15573;SDS011;7888;46.748;8.102;2022-09-29T17:38:00;0.70;;;0.53;;
15573;SDS011;7888;46.748;8.102;2022-09-29T17:40:35;1.07;;;0.60;;
15573;SDS011;7888;46.748;8.102;2022-09-29T17:43:05;0.60;;;0.60;;
15573;SDS011;7888;46.748;8.102;2022-09-29T17:45:30;0.43;;;0.40;;
15573;SDS011;7888;46.748;8.102;2022-09-29T17:47:59;0.50;;;0.50;;
15573;SDS011;7888;46.748;8.102;2022-09-29T17:50:31;0.50;;;0.50;;
15573;SDS011;7888;46.748;8.102;2022-09-29T17:53:05;0.87;;;0.87;;
15573;SDS011;7888;46.748;8.102;2022-09-29T17:55:34;1.63;;;1.53;;
15573;SDS011;7888;46.748;8.102;2022-09-29T17:58:00;1.90;;;1.30;;
15573;SDS011;7888;46.748;8.102;2022-09-29T18:00:31;0.90;;;0.90;;
15573;SDS011;7888;46.748;8.102;2022-09-29T18:03:02;1.40;;;0.93;;
15573;SDS011;7888;46.748;8.102;2022-09-29T18:05:37;1.37;;;1.27;;
15573;SDS011;7888;46.748;8.102;2022-09-29T18:08:06;2.60;;;2.07;;
15573;SDS011;7888;46.748;8.102;2022-09-29T18:13:19;1.90;;;1.47;;
15573;SDS011;7888;46.748;8.102;2022-09-29T18:15:57;3.90;;;3.33;;
15573;SDS011;7888;46.748;8.102;2022-09-29T18:18:25;3.17;;;2.87;;
15573;SDS011;7888;46.748;8.102;2022-09-29T18:20:51;1.80;;;1.50;;
15573;SDS011;7888;46.748;8.102;2022-09-29T18:23:17;0.87;;;0.87;;
15573;SDS011;7888;46.748;8.102;2022-09-29T18:25:45;0.70;;;0.70;;
15573;SDS011;7888;46.748;8.102;2022-09-29T18:28:14;0.60;;;0.60;;
15573;SDS011;7888;46.748;8.102;2022-09-29T18:30:42;0.60;;;0.60;;
15573;SDS011;7888;46.748;8.102;2022-09-29T18:33:13;2.77;;;1.90;;
15573;SDS011;7888;46.748;8.102;2022-09-29T18:35:42;2.80;;;2.20;;
15573;SDS011;7888;46.748;8.102;2022-09-29T18:38:14;1.90;;;1.00;;
15573;SDS011;7888;46.748;8.102;2022-09-29T18:40:40;1.43;;;1.00;;
15573;SDS011;7888;46.748;8.102;2022-09-29T18:43:06;8.10;;;4.30;;
15573;SDS011;7888;46.748;8.102;2022-09-29T18:45:36;7.87;;;4.70;;
15573;SDS011;7888;46.748;8.102;2022-09-29T18:48:06;4.93;;;3.10;;
15573;SDS011;7888;46.748;8.102;2022-09-29T18:50:42;9.80;;;5.87;;
15573;SDS011;7888;46.748;8.102;2022-09-29T18:53:17;5.70;;;3.80;;
15573;SDS011;7888;46.748;8.102;2022-09-29T18:55:45;4.40;;;2.77;;
15573;SDS011;7888;46.748;8.102;2022-09-29T18:58:17;1.47;;;1.27;;
15573;SDS011;7888;46.748;8.102;2022-09-29T19:00:48;2.13;;;1.70;;
15573;SDS011;7888;46.748;8.102;2022-09-29T19:03:18;3.50;;;2.50;;
15573;SDS011;7888;46.748;8.102;2022-09-29T19:05:47;2.90;;;2.20;;
15573;SDS011;7888;46.748;8.102;2022-09-29T19:08:14;2.73;;;1.90;;
15573;SDS011;7888;46.748;8.102;2022-09-29T19:10:49;3.37;;;2.00;;